createdAt,value
2022-09-06T00:00:53.138Z,3.05
2022-09-06T00:03:22.543Z,3.08
2022-09-06T00:05:51.423Z,2.40
2022-09-06T00:08:19.019Z,2.30
2022-09-06T00:10:48.587Z,2.03
2022-09-06T00:13:16.509Z,3.05
2022-09-06T00:15:44.498Z,2.47
2022-09-06T00:18:11.832Z,2.22
2022-09-06T00:20:41.648Z,2.08
2022-09-06T00:23:09.186Z,2.25
2022-09-06T00:25:36.801Z,2.35
2022-09-06T00:28:06.218Z,2.22
2022-09-06T00:30:34.186Z,2.60
2022-09-06T00:33:01.357Z,2.03
2022-09-06T00:35:29.587Z,2.35
2022-09-06T00:38:01.659Z,2.10
2022-09-06T00:40:30.666Z,2.00
2022-09-06T00:42:58.135Z,2.30
2022-09-06T00:45:28.123Z,2.00
2022-09-06T00:47:55.763Z,2.22
2022-09-06T00:50:23.139Z,2.33
2022-09-06T00:52:52.834Z,2.33
2022-09-06T00:55:20.826Z,2.38
2022-09-06T00:57:51.544Z,2.28
2022-09-06T01:00:20.307Z,2.45
2022-09-06T01:02:48.920Z,2.40
2022-09-06T01:05:17.072Z,2.20
2022-09-06T01:07:44.181Z,2.60
2022-09-06T01:10:51.409Z,2.35
2022-09-06T01:13:46.812Z,2.80
2022-09-06T01:16:19.057Z,2.30
2022-09-06T01:19:09.598Z,2.10
2022-09-06T01:21:55.930Z,2.80
2022-09-06T01:24:41.771Z,3.10
2022-09-06T01:27:27.246Z,2.53
2022-09-06T01:30:14.561Z,2.50
2022-09-06T01:33:13.881Z,2.42
2022-09-06T01:35:51.321Z,2.38
2022-09-06T01:38:19.577Z,2.50
2022-09-06T01:40:46.696Z,2.50
2022-09-06T01:43:22.588Z,2.58
2022-09-06T01:46:01.656Z,2.90
2022-09-06T01:48:51.163Z,2.70
2022-09-06T01:51:24.523Z,2.67
2022-09-06T01:53:51.632Z,2.70
2022-09-06T01:56:30.520Z,2.55
2022-09-06T01:59:28.477Z,2.90
2022-09-06T02:02:11.077Z,3.15
2022-09-06T02:04:53.078Z,3.13
2022-09-06T02:07:29.933Z,2.60
2022-09-06T02:10:24.770Z,2.58
2022-09-06T02:12:56.793Z,3.28
2022-09-06T02:15:29.667Z,2.45
2022-09-06T02:18:04.795Z,2.78
2022-09-06T02:20:35.529Z,2.17
2022-09-06T02:23:06.595Z,2.70
2022-09-06T02:25:44.323Z,2.80
2022-09-06T02:28:12.924Z,2.58
2022-09-06T02:30:45.494Z,2.70
2022-09-06T02:33:21.607Z,2.83
2022-09-06T02:35:52.007Z,3.40
2022-09-06T02:38:22.745Z,2.33
2022-09-06T02:40:55.070Z,2.50
2022-09-06T02:43:25.846Z,2.63
2022-09-06T02:45:53.139Z,2.45
2022-09-06T02:48:20.400Z,2.10
2022-09-06T02:50:47.514Z,2.00
2022-09-06T02:53:19.138Z,2.08
2022-09-06T02:55:48.821Z,1.90
2022-09-06T02:58:16.454Z,2.03
2022-09-06T03:00:44.177Z,2.47
2022-09-06T03:03:12.191Z,2.20
2022-09-06T03:05:39.417Z,2.90
2022-09-06T03:08:06.601Z,2.70
2022-09-06T03:10:34.114Z,2.72
2022-09-06T03:13:01.271Z,2.45
2022-09-06T03:15:28.469Z,2.92
2022-09-06T03:17:59.803Z,2.88
2022-09-06T03:22:54.353Z,2.47
2022-09-06T03:25:21.985Z,2.90
2022-09-06T03:27:49.261Z,3.40
2022-09-06T03:30:16.527Z,2.90
2022-09-06T03:32:43.894Z,2.70
2022-09-06T03:35:11.810Z,2.88
2022-09-06T03:37:39.087Z,2.90
2022-09-06T03:40:06.831Z,3.60
2022-09-06T03:42:34.228Z,3.63
2022-09-06T03:45:01.537Z,3.60
2022-09-06T03:47:30.954Z,3.17
2022-09-06T03:49:58.138Z,3.22
2022-09-06T03:52:25.284Z,3.70
2022-09-06T03:54:52.710Z,3.58
2022-09-06T03:57:20.099Z,3.33
2022-09-06T03:59:47.094Z,4.13
2022-09-06T04:02:14.871Z,3.65
2022-09-06T04:04:41.980Z,3.10
2022-09-06T04:07:09.338Z,3.85
2022-09-06T04:09:37.256Z,3.67
2022-09-06T04:12:05.106Z,4.13
2022-09-06T04:14:32.352Z,3.95
2022-09-06T04:16:59.864Z,3.95
2022-09-06T04:19:27.291Z,4.07
2022-09-06T04:21:54.840Z,4.35
2022-09-06T04:24:22.594Z,3.33
2022-09-06T04:26:50.219Z,3.50
2022-09-06T04:29:17.394Z,3.30
2022-09-06T04:31:44.703Z,3.83
2022-09-06T04:34:11.991Z,3.50
2022-09-06T04:36:39.432Z,4.13
2022-09-06T04:39:06.616Z,5.97
2022-09-06T04:41:33.833Z,5.50
2022-09-06T04:44:01.137Z,3.70
2022-09-06T04:46:30.316Z,3.58
2022-09-06T04:48:58.113Z,2.90
2022-09-06T04:51:25.923Z,3.35
2022-09-06T04:53:53.784Z,3.88
2022-09-06T04:56:23.742Z,3.58
2022-09-06T04:58:54.502Z,3.17
2022-09-06T05:01:21.854Z,3.33
2022-09-06T05:03:49.549Z,3.97
2022-09-06T05:06:22.983Z,3.05
2022-09-06T05:08:50.863Z,3.60
2022-09-06T05:11:18.730Z,3.30
2022-09-06T05:13:47.605Z,3.53
2022-09-06T05:16:15.417Z,3.15
2022-09-06T05:18:42.954Z,3.20
2022-09-06T05:21:11.648Z,3.33
2022-09-06T05:23:39.204Z,3.42
2022-09-06T05:26:07.026Z,3.15
2022-09-06T05:28:34.254Z,3.40
2022-09-06T05:31:09.369Z,3.72
2022-09-06T05:33:36.996Z,3.25
2022-09-06T05:36:05.782Z,3.50
2022-09-06T05:38:33.820Z,3.38
2022-09-06T05:41:01.268Z,3.20
2022-09-06T05:43:28.501Z,3.38
2022-09-06T05:45:55.842Z,3.70
2022-09-06T05:48:23.055Z,4.50
2022-09-06T05:51:03.674Z,4.25
2022-09-06T05:53:39.359Z,4.53
2022-09-06T05:56:07.475Z,3.70
2022-09-06T05:58:34.995Z,3.88
2022-09-06T06:01:29.952Z,3.78
2022-09-06T06:04:15.780Z,3.20
2022-09-06T06:06:43.099Z,3.25
2022-09-06T06:09:10.364Z,3.78
2022-09-06T06:11:38.055Z,3.47
2022-09-06T06:14:05.628Z,3.50
2022-09-06T06:16:33.500Z,3.13
2022-09-06T06:19:01.040Z,2.65
2022-09-06T06:21:29.974Z,2.65
2022-09-06T06:24:03.076Z,2.92
2022-09-06T06:26:32.908Z,3.10
2022-09-06T06:29:02.156Z,3.08
2022-09-06T06:31:31.392Z,2.90
2022-09-06T06:33:59.586Z,2.97
2022-09-06T06:36:30.905Z,4.30
2022-09-06T06:38:58.754Z,4.18
2022-09-06T06:41:28.918Z,4.50
2022-09-06T06:43:59.148Z,4.60
2022-09-06T06:46:29.291Z,5.20
2022-09-06T06:48:56.621Z,6.95
2022-09-06T06:51:26.697Z,11.07
2022-09-06T06:53:54.229Z,6.80
2022-09-06T06:56:30.280Z,6.75
2022-09-06T06:59:01.870Z,5.60
2022-09-06T07:01:36.105Z,4.32
2022-09-06T07:04:08.814Z,4.57
2022-09-06T07:12:32.497Z,3.83
2022-09-06T07:15:00.513Z,2.90
2022-09-06T07:17:28.683Z,2.60
2022-09-06T07:22:40.527Z,3.08
2022-09-06T07:25:09.339Z,2.90
2022-09-06T07:27:52.852Z,3.10
2022-09-06T07:30:20.547Z,2.80
2022-09-06T07:32:48.179Z,3.35
2022-09-06T07:35:15.590Z,2.15
2022-09-06T07:37:42.902Z,3.17
2022-09-06T07:40:10.697Z,2.47
2022-09-06T07:42:38.740Z,4.88
2022-09-06T07:45:06.183Z,2.30
2022-09-06T07:53:14.115Z,2.15
2022-09-06T07:55:43.395Z,1.90
2022-09-06T07:58:11.314Z,1.90
2022-09-06T08:00:43.175Z,1.83
2022-09-06T08:03:13.652Z,2.08
2022-09-06T08:11:16.154Z,2.15
2022-09-06T08:13:44.205Z,2.63
2022-09-06T08:16:12.636Z,2.35
2022-09-06T08:18:40.335Z,5.32
2022-09-06T08:21:13.566Z,2.00
2022-09-06T08:23:50.402Z,1.63
2022-09-06T08:26:21.003Z,1.83
2022-09-06T08:29:00.360Z,2.15
2022-09-06T08:31:30.509Z,2.17
2022-09-06T08:33:59.397Z,1.88
2022-09-06T08:36:29.663Z,3.00
2022-09-06T08:38:57.827Z,1.92
2022-09-06T08:41:26.523Z,1.70
2022-09-06T08:46:58.133Z,4.25
2022-09-06T08:49:31.975Z,2.00
2022-09-06T08:52:12.378Z,1.88
2022-09-06T08:55:03.775Z,2.00
2022-09-06T08:58:08.918Z,2.35
2022-09-06T09:00:38.624Z,1.73
2022-09-06T09:03:17.120Z,2.05
2022-09-06T09:05:50.686Z,1.77
2022-09-06T09:08:53.661Z,1.73
2022-09-06T09:11:25.569Z,1.60
2022-09-06T09:16:38.494Z,1.90
2022-09-06T09:19:06.633Z,1.77
2022-09-06T09:21:37.527Z,1.77
2022-09-06T09:24:13.471Z,1.37
2022-09-06T09:27:13.951Z,1.80
2022-09-06T09:32:45.224Z,1.40
2022-09-06T09:35:21.626Z,2.00
2022-09-06T09:37:59.445Z,1.75
2022-09-06T09:40:49.414Z,1.30
2022-09-06T09:43:19.594Z,1.60
2022-09-06T09:45:58.786Z,1.42
2022-09-06T09:48:28.178Z,1.65
2022-09-06T09:50:56.185Z,1.42
2022-09-06T09:53:24.402Z,1.60
2022-09-06T09:55:59.336Z,1.60
2022-09-06T09:58:32.249Z,1.63
2022-09-06T10:01:21.851Z,1.52
2022-09-06T10:09:35.896Z,1.55
2022-09-06T10:12:03.814Z,1.60
2022-09-06T10:14:42.076Z,1.35
2022-09-06T10:17:19.807Z,1.52
2022-09-06T10:19:47.546Z,1.40
2022-09-06T10:22:26.138Z,1.80
2022-09-06T10:25:28.728Z,1.20
2022-09-06T10:28:12.367Z,1.42
2022-09-06T10:31:02.391Z,1.77
2022-09-06T10:33:39.548Z,1.40
2022-09-06T10:36:07.871Z,1.40
2022-09-06T10:38:43.893Z,1.30
2022-09-06T10:41:13.738Z,1.67
2022-09-06T10:43:51.070Z,1.30
2022-09-06T10:46:26.509Z,1.42
2022-09-06T10:48:54.157Z,1.55
2022-09-06T10:51:50.155Z,1.50
2022-09-06T10:54:23.204Z,1.40
2022-09-06T10:56:57.467Z,1.60
2022-09-06T11:02:16.695Z,1.30
2022-09-06T11:10:35.058Z,1.20
2022-09-06T11:13:32.465Z,1.50
2022-09-06T11:16:05.911Z,1.40
2022-09-06T11:18:37.870Z,1.45
2022-09-06T11:21:12.851Z,1.27
2022-09-06T11:24:16.081Z,1.50
2022-09-06T11:27:02.750Z,1.17
2022-09-06T11:29:32.044Z,1.65
2022-09-06T11:32:18.110Z,1.35
2022-09-06T11:34:58.014Z,1.35
2022-09-06T11:37:33.040Z,1.45
2022-09-06T11:42:55.763Z,1.30
2022-09-06T11:45:45.924Z,1.30
2022-09-06T11:48:27.019Z,1.20
2022-09-06T11:50:59.452Z,1.30
2022-09-06T11:53:35.154Z,1.80
2022-09-06T11:56:02.640Z,1.33
2022-09-06T11:58:59.889Z,1.70
2022-09-06T12:01:26.973Z,1.52
2022-09-06T12:06:37.969Z,1.45
2022-09-06T12:09:29.556Z,1.25
2022-09-06T12:11:59.329Z,1.48
2022-09-06T12:14:26.600Z,1.42
2022-09-06T12:17:05.310Z,1.40
2022-09-06T12:19:52.181Z,1.80
2022-09-06T12:22:32.881Z,1.40
2022-09-06T12:25:05.548Z,0.90
2022-09-06T12:27:40.110Z,1.45
2022-09-06T12:30:12.155Z,1.40
2022-09-06T12:32:52.519Z,1.42
2022-09-06T12:38:18.633Z,1.45
2022-09-06T12:40:48.782Z,1.23
2022-09-06T12:43:17.678Z,1.30
2022-09-06T12:45:47.581Z,1.30
2022-09-06T12:48:28.500Z,1.20
2022-09-06T12:51:22.046Z,1.38
2022-09-06T12:54:00.113Z,1.50
2022-09-06T12:56:29.607Z,1.27
2022-09-06T12:59:14.375Z,1.52
2022-09-06T13:01:49.636Z,1.42
2022-09-06T13:04:42.658Z,1.60
2022-09-06T13:07:12.999Z,1.48
2022-09-06T13:09:44.727Z,1.60
2022-09-06T13:12:33.481Z,1.38
2022-09-06T13:15:25.362Z,1.40
2022-09-06T13:17:55.324Z,1.67
2022-09-06T13:20:29.388Z,1.73
2022-09-06T13:23:11.588Z,1.60
2022-09-06T13:25:50.780Z,1.48
2022-09-06T13:28:30.315Z,1.63
2022-09-06T13:31:07.005Z,1.75
2022-09-06T13:33:36.055Z,1.65
2022-09-06T13:36:12.294Z,1.40
2022-09-06T13:38:42.378Z,1.60
2022-09-06T13:41:25.079Z,1.60
2022-09-06T13:44:04.607Z,1.58
2022-09-06T13:46:36.484Z,1.30
2022-09-06T13:49:11.025Z,1.40
2022-09-06T13:51:43.271Z,1.50
2022-09-06T13:54:13.150Z,1.63
2022-09-06T13:56:41.789Z,1.30
2022-09-06T13:59:12.413Z,1.80
2022-09-06T14:01:42.749Z,1.67
2022-09-06T14:04:12.887Z,1.52
2022-09-06T14:06:40.677Z,1.50
2022-09-06T14:09:12.655Z,1.65
2022-09-06T14:11:47.530Z,1.70
2022-09-06T14:14:39.443Z,1.30
2022-09-06T14:17:15.402Z,1.25
2022-09-06T14:19:46.488Z,1.40
2022-09-06T14:22:15.890Z,1.48
2022-09-06T14:24:43.996Z,1.63
2022-09-06T14:27:36.674Z,1.40
2022-09-06T14:30:05.036Z,1.40
2022-09-06T14:32:33.012Z,1.70
2022-09-06T14:35:02.238Z,1.77
2022-09-06T14:37:30.421Z,1.20
2022-09-06T14:40:29.337Z,1.30
2022-09-06T14:42:58.444Z,1.58
2022-09-06T14:45:25.868Z,1.73
2022-09-06T14:47:53.719Z,1.50
2022-09-06T14:50:21.848Z,1.50
2022-09-06T14:52:49.317Z,1.30
2022-09-06T14:55:18.092Z,1.40
2022-09-06T14:57:46.145Z,1.73
2022-09-06T15:00:14.391Z,1.90
2022-09-06T15:02:41.958Z,1.60
2022-09-06T15:05:11.050Z,2.00
2022-09-06T15:07:38.611Z,1.67
2022-09-06T15:10:06.600Z,1.50
2022-09-06T15:12:33.997Z,1.67
2022-09-06T15:15:03.108Z,1.40
2022-09-06T15:17:31.689Z,1.50
2022-09-06T15:19:58.811Z,1.77
2022-09-06T15:22:26.905Z,1.95
2022-09-06T15:24:54.506Z,1.80
2022-09-06T15:27:21.692Z,1.80
2022-09-06T15:29:48.951Z,1.50
2022-09-06T15:32:16.082Z,1.50
2022-09-06T15:34:43.582Z,1.40
2022-09-06T15:37:11.152Z,1.50
2022-09-06T15:39:38.448Z,1.20
2022-09-06T15:42:06.398Z,3.17
2022-09-06T15:44:34.578Z,1.50
2022-09-06T15:47:02.032Z,1.25
2022-09-06T15:49:31.961Z,1.40
2022-09-06T15:52:02.187Z,1.30
2022-09-06T15:54:48.717Z,1.33
2022-09-06T15:57:17.123Z,1.38
2022-09-06T15:59:45.189Z,1.30
2022-09-06T16:02:13.440Z,1.50
2022-09-06T16:04:40.750Z,7.65
2022-09-06T16:07:08.805Z,9.00
2022-09-06T16:09:36.166Z,8.57
2022-09-06T16:12:03.864Z,3.72
2022-09-06T16:14:31.803Z,3.83
2022-09-06T16:16:59.251Z,3.10
2022-09-06T16:19:26.800Z,2.20
2022-09-06T16:21:54.328Z,2.08
2022-09-06T16:24:22.838Z,2.35
2022-09-06T16:26:50.576Z,1.98
2022-09-06T16:29:19.275Z,2.75
2022-09-06T16:31:47.811Z,2.25
2022-09-06T16:34:15.805Z,2.35
2022-09-06T16:36:43.065Z,2.03
2022-09-06T16:39:11.105Z,2.00
2022-09-06T16:41:41.440Z,2.08
2022-09-06T16:44:10.575Z,2.80
2022-09-06T16:46:40.210Z,7.07
2022-09-06T16:49:07.546Z,5.70
2022-09-06T16:51:34.811Z,6.43
2022-09-06T16:54:02.944Z,4.32
2022-09-06T16:56:36.111Z,3.85
2022-09-06T16:59:08.325Z,4.63
2022-09-06T17:01:37.398Z,4.78
2022-09-06T17:04:05.811Z,4.90
2022-09-06T17:06:38.469Z,5.05
2022-09-06T17:09:05.753Z,4.75
2022-09-06T17:11:32.981Z,4.15
2022-09-06T17:14:04.082Z,3.90
2022-09-06T17:16:49.765Z,4.03
2022-09-06T17:19:22.979Z,4.00
2022-09-06T17:21:50.796Z,3.30
2022-09-06T17:24:18.381Z,4.50
2022-09-06T17:26:46.207Z,9.65
2022-09-06T17:29:13.373Z,7.20
2022-09-06T17:31:40.782Z,3.40
2022-09-06T17:34:08.121Z,2.00
2022-09-06T17:36:38.990Z,2.45
2022-09-06T17:39:14.015Z,3.13
2022-09-06T17:41:45.766Z,2.63
2022-09-06T17:44:15.489Z,2.17
2022-09-06T17:46:57.100Z,2.70
2022-09-06T17:49:31.111Z,2.53
2022-09-06T17:51:58.638Z,1.92
2022-09-06T17:54:26.011Z,2.35
2022-09-06T17:56:53.439Z,3.25
2022-09-06T17:59:20.646Z,1.75
2022-09-06T18:01:48.018Z,1.63
2022-09-06T18:04:15.457Z,2.20
2022-09-06T18:06:43.663Z,1.60
2022-09-06T18:09:14.869Z,1.70
2022-09-06T18:14:16.987Z,1.27
2022-09-06T18:16:47.197Z,1.50
2022-09-06T18:19:16.149Z,1.90
2022-09-06T18:21:43.715Z,1.10
2022-09-06T18:24:13.869Z,1.50
2022-09-06T18:26:43.137Z,1.50
2022-09-06T18:29:17.874Z,1.20
2022-09-06T18:31:46.528Z,1.38
2022-09-06T18:34:16.606Z,1.52
2022-09-06T18:36:45.255Z,2.03
2022-09-06T18:39:13.402Z,1.60
2022-09-06T18:42:00.311Z,1.48
2022-09-06T18:44:32.300Z,1.80
2022-09-06T18:47:07.971Z,2.17
2022-09-06T18:49:38.506Z,2.33
2022-09-06T18:52:07.956Z,2.20
2022-09-06T18:54:36.649Z,1.92
2022-09-06T18:57:04.673Z,1.95
2022-09-06T18:59:32.278Z,1.63
2022-09-06T19:01:59.960Z,1.70
2022-09-06T19:04:28.637Z,1.67
2022-09-06T19:06:56.023Z,1.83
2022-09-06T19:09:23.768Z,1.52
2022-09-06T19:11:52.896Z,1.63
2022-09-06T19:14:20.680Z,1.90
2022-09-06T19:16:50.218Z,1.40
2022-09-06T19:19:18.322Z,1.60
2022-09-06T19:21:45.761Z,2.10
2022-09-06T19:24:15.204Z,1.60
2022-09-06T19:26:44.338Z,1.80
2022-09-06T19:29:17.207Z,1.90
2022-09-06T19:31:46.455Z,3.10
2022-09-06T19:34:19.126Z,2.63
2022-09-06T19:36:46.423Z,2.05
2022-09-06T19:39:15.874Z,2.38
2022-09-06T19:41:45.285Z,2.70
2022-09-06T19:44:14.050Z,2.55
2022-09-06T19:46:45.626Z,2.20
2022-09-06T19:49:19.297Z,2.20
2022-09-06T19:51:49.222Z,2.17
2022-09-06T19:54:17.754Z,2.10
2022-09-06T19:56:46.786Z,1.77
2022-09-06T19:59:15.407Z,2.13
2022-09-06T20:01:44.580Z,1.90
2022-09-06T20:04:13.929Z,2.22
2022-09-06T20:06:41.406Z,1.77
2022-09-06T20:09:10.462Z,1.80
2022-09-06T20:11:39.379Z,1.98
2022-09-06T20:14:07.293Z,2.10
2022-09-06T20:16:38.099Z,2.08
2022-09-06T20:19:07.951Z,2.53
2022-09-06T20:21:35.118Z,2.53
2022-09-06T20:24:02.513Z,2.50
2022-09-06T20:26:30.595Z,2.00
2022-09-06T20:29:03.301Z,2.05
2022-09-06T20:31:31.858Z,2.40
2022-09-06T20:34:01.123Z,2.15
2022-09-06T20:36:28.930Z,2.17
2022-09-06T20:38:56.357Z,2.00
2022-09-06T20:41:25.687Z,1.65
2022-09-06T20:43:57.758Z,1.70
2022-09-06T20:46:31.265Z,1.90
2022-09-06T20:49:02.015Z,1.55
2022-09-06T20:51:29.487Z,1.40
2022-09-06T20:53:58.999Z,2.30
2022-09-06T20:56:29.155Z,2.30
2022-09-06T20:59:00.716Z,2.47
2022-09-06T21:01:34.795Z,2.40
2022-09-06T21:04:04.169Z,2.53
2022-09-06T21:06:36.330Z,2.33
2022-09-06T21:09:12.331Z,2.40
2022-09-06T21:11:40.160Z,2.45
2022-09-06T21:14:08.035Z,1.92
2022-09-06T21:16:35.338Z,1.98
2022-09-06T21:19:05.640Z,1.48
2022-09-06T21:21:34.714Z,2.13
2022-09-06T21:24:03.878Z,1.73
2022-09-06T21:26:31.213Z,1.83
2022-09-06T21:28:58.880Z,1.75
2022-09-06T21:31:36.103Z,1.83
2022-09-06T21:34:06.877Z,2.00
2022-09-06T21:36:36.505Z,1.83
2022-09-06T21:39:15.290Z,1.75
2022-09-06T21:41:43.561Z,1.80
2022-09-06T21:44:12.218Z,1.83
2022-09-06T21:46:40.323Z,1.80
2022-09-06T21:49:10.383Z,1.70
2022-09-06T21:51:38.814Z,1.45
2022-09-06T21:54:06.571Z,1.40
2022-09-06T21:56:36.020Z,1.70
2022-09-06T21:59:04.859Z,1.85
2022-09-06T22:01:34.157Z,1.60
2022-09-06T22:04:02.441Z,1.65
2022-09-06T22:06:31.814Z,1.50
2022-09-06T22:09:01.346Z,1.65
2022-09-06T22:11:31.872Z,1.70
2022-09-06T22:14:04.046Z,2.00
2022-09-06T22:16:33.583Z,1.90
2022-09-06T22:19:01.572Z,2.80
2022-09-06T22:21:29.066Z,1.98
2022-09-06T22:24:01.488Z,1.70
2022-09-06T22:26:30.829Z,2.28
2022-09-06T22:29:03.390Z,1.65
2022-09-06T22:31:32.166Z,1.73
2022-09-06T22:33:59.858Z,1.98
2022-09-06T22:36:27.762Z,2.15
2022-09-06T22:38:58.731Z,1.75
2022-09-06T22:41:32.299Z,1.70
2022-09-06T22:44:01.068Z,1.80
2022-09-06T22:46:29.112Z,1.70
2022-09-06T22:48:56.467Z,2.00
2022-09-06T22:51:23.709Z,2.20
2022-09-06T22:53:51.047Z,2.05
2022-09-06T22:56:18.179Z,2.25
2022-09-06T22:58:45.462Z,1.77
2022-09-06T23:01:14.857Z,2.88
2022-09-06T23:03:42.812Z,2.22
2022-09-06T23:06:10.788Z,2.38
2022-09-06T23:08:39.847Z,1.70
2022-09-06T23:11:09.806Z,1.90
2022-09-06T23:13:37.342Z,2.00
2022-09-06T23:16:11.327Z,1.80
2022-09-06T23:18:38.767Z,2.05
2022-09-06T23:21:11.928Z,2.22
2022-09-06T23:23:40.238Z,1.80
2022-09-06T23:26:09.914Z,2.15
2022-09-06T23:28:37.667Z,2.10
2022-09-06T23:31:07.049Z,1.42
2022-09-06T23:33:36.336Z,1.83
2022-09-06T23:36:05.659Z,1.70
2022-09-06T23:38:37.624Z,1.60
2022-09-06T23:41:05.989Z,2.08
2022-09-06T23:43:33.363Z,1.60
2022-09-06T23:46:00.982Z,1.77
2022-09-06T23:48:29.340Z,1.83
2022-09-06T23:50:57.041Z,1.98
2022-09-06T23:53:24.302Z,2.00
2022-09-06T23:55:51.535Z,1.67
2022-09-06T23:58:18.774Z,1.77
